createdAt,value
2018-09-14T00:00:26.812Z,121.60
2018-09-14T00:02:54.818Z,140.90
2018-09-14T00:05:22.716Z,161.37
2018-09-14T00:07:50.724Z,150.13
2018-09-14T00:10:18.695Z,146.37
2018-09-14T00:12:46.578Z,142.73
2018-09-14T00:15:14.410Z,127.73
2018-09-14T00:17:42.246Z,130.00
2018-09-14T00:23:44.915Z,139.10
2018-09-14T00:29:13.817Z,145.07
2018-09-14T00:31:41.470Z,156.20
2018-09-14T00:34:09.273Z,187.13
2018-09-14T00:36:37.054Z,198.93
2018-09-14T00:39:18.246Z,181.43
2018-09-14T00:41:46.235Z,182.37
2018-09-14T00:44:14.113Z,174.00
2018-09-14T00:46:41.948Z,193.40
2018-09-14T00:49:09.800Z,186.10
2018-09-14T00:51:37.630Z,196.40
2018-09-14T00:54:05.403Z,176.40
2018-09-14T00:56:33.195Z,187.73
2018-09-14T00:59:01.006Z,173.47
2018-09-14T01:01:28.837Z,178.03
2018-09-14T01:03:56.645Z,160.17
2018-09-14T01:06:24.461Z,162.00
2018-09-14T01:08:52.339Z,182.03
2018-09-14T01:11:20.160Z,163.57
2018-09-14T01:13:47.980Z,191.20
2018-09-14T01:16:15.824Z,179.33
2018-09-14T01:18:43.633Z,189.63
2018-09-14T01:21:11.440Z,200.93
2018-09-14T01:23:39.237Z,191.23
2018-09-14T01:26:07.039Z,197.00
2018-09-14T01:28:35.026Z,208.07
2018-09-14T01:31:02.959Z,224.07
2018-09-14T01:33:32.781Z,196.93
2018-09-14T01:36:06.175Z,196.13
2018-09-14T01:38:33.964Z,200.00
2018-09-14T01:41:33.326Z,201.23
2018-09-14T01:44:01.241Z,177.47
2018-09-14T01:46:29.101Z,183.07
2018-09-14T01:48:56.971Z,194.97
2018-09-14T01:51:24.865Z,193.20
2018-09-14T01:53:52.707Z,192.63
2018-09-14T01:56:20.530Z,162.63
2018-09-14T01:58:48.363Z,151.87
2018-09-14T02:01:16.191Z,143.27
2018-09-14T02:03:44.690Z,146.33
2018-09-14T02:06:12.640Z,187.30
2018-09-14T02:08:41.521Z,180.73
2018-09-14T02:11:09.503Z,198.90
2018-09-14T02:14:07.582Z,168.70
2018-09-14T02:16:44.068Z,188.37
2018-09-14T02:19:19.890Z,198.93
2018-09-14T02:21:47.890Z,188.57
2018-09-14T02:24:15.921Z,201.77
2018-09-14T02:26:43.860Z,185.03
2018-09-14T02:29:11.864Z,188.27
2018-09-14T02:31:39.779Z,172.60
2018-09-14T02:34:07.767Z,180.90
2018-09-14T02:36:35.658Z,141.13
2018-09-14T02:39:05.240Z,146.53
2018-09-14T02:41:33.148Z,152.33
2018-09-14T02:44:01.133Z,150.50
2018-09-14T02:46:29.019Z,165.90
2018-09-14T02:48:56.940Z,158.17
2018-09-14T02:51:24.860Z,192.93
2018-09-14T02:53:52.724Z,222.87
2018-09-14T02:56:20.625Z,212.77
2018-09-14T02:58:48.515Z,237.37
2018-09-14T03:01:16.466Z,260.53
2018-09-14T03:03:44.350Z,276.70
2018-09-14T03:06:12.257Z,271.90
2018-09-14T03:08:40.195Z,286.43
2018-09-14T03:11:08.121Z,283.60
2018-09-14T03:13:36.014Z,280.13
2018-09-14T03:16:03.966Z,275.17
2018-09-14T03:18:31.886Z,275.47
2018-09-14T03:24:06.269Z,240.73
2018-09-14T03:26:34.070Z,212.50
2018-09-14T03:29:01.876Z,190.67
2018-09-14T03:31:30.651Z,241.17
2018-09-14T03:33:58.405Z,245.57
2018-09-14T03:36:26.193Z,283.87
2018-09-14T03:38:54.000Z,205.00
2018-09-14T03:41:21.800Z,270.80
2018-09-14T03:43:49.592Z,274.50
2018-09-14T03:46:17.647Z,321.40
2018-09-14T03:48:45.681Z,286.47
2018-09-14T03:51:13.720Z,329.43
2018-09-14T03:53:41.712Z,315.50
2018-09-14T03:56:09.731Z,278.10
2018-09-14T03:58:37.765Z,295.53
2018-09-14T04:01:05.843Z,287.93
2018-09-14T04:03:33.686Z,250.67
2018-09-14T04:06:01.700Z,252.47
2018-09-14T04:08:29.591Z,284.77
2018-09-14T04:10:57.705Z,265.57
2018-09-14T04:13:25.677Z,277.60
2018-09-14T04:15:53.604Z,303.30
2018-09-14T04:18:21.533Z,281.27
2018-09-14T04:20:49.421Z,281.47
2018-09-14T04:23:17.323Z,252.33
2018-09-14T04:25:45.236Z,277.67
2018-09-14T04:28:13.239Z,252.20
2018-09-14T04:30:41.225Z,197.77
2018-09-14T04:33:09.122Z,286.30
2018-09-14T04:35:38.086Z,291.60
2018-09-14T04:38:06.011Z,255.20
2018-09-14T04:40:33.865Z,232.60
2018-09-14T04:43:01.754Z,244.90
2018-09-14T04:45:29.723Z,262.03
2018-09-14T04:47:57.562Z,278.20
2018-09-14T04:50:25.400Z,280.73
2018-09-14T04:52:53.259Z,309.67
2018-09-14T04:55:22.078Z,249.37
2018-09-14T04:57:49.856Z,264.30
2018-09-14T05:00:17.614Z,237.43
2018-09-14T05:03:16.367Z,219.47
2018-09-14T05:05:44.222Z,219.60
2018-09-14T05:08:12.058Z,241.73
2018-09-14T05:10:39.831Z,303.87
2018-09-14T05:13:07.545Z,299.80
2018-09-14T05:15:35.490Z,315.80
2018-09-14T05:18:04.831Z,360.20
2018-09-14T05:20:32.891Z,374.20
2018-09-14T05:23:01.085Z,395.60
2018-09-14T05:25:29.134Z,396.40
2018-09-14T05:27:56.961Z,370.10
2018-09-14T05:30:24.890Z,386.90
2018-09-14T05:32:53.066Z,386.70
2018-09-14T05:35:20.923Z,434.40
2018-09-14T05:37:48.742Z,425.53
2018-09-14T05:40:17.666Z,435.37
2018-09-14T05:42:45.547Z,437.27
2018-09-14T05:45:13.579Z,427.67
2018-09-14T05:47:41.408Z,396.47
2018-09-14T05:50:09.284Z,423.63
2018-09-14T05:52:37.125Z,392.63
2018-09-14T05:55:05.105Z,382.23
2018-09-14T05:57:33.010Z,375.13
2018-09-14T06:00:00.902Z,403.10
2018-09-14T06:02:28.782Z,358.43
2018-09-14T06:04:56.655Z,337.87
2018-09-14T06:07:24.437Z,321.60
2018-09-14T06:10:01.022Z,347.57
2018-09-14T06:12:28.970Z,339.60
2018-09-14T06:14:56.853Z,325.30
2018-09-14T06:17:24.705Z,299.00
2018-09-14T06:19:52.846Z,302.20
2018-09-14T06:22:20.711Z,277.53
2018-09-14T06:24:50.583Z,264.53
2018-09-14T06:27:18.391Z,245.00
2018-09-14T06:29:46.267Z,267.70
2018-09-14T06:32:14.122Z,253.37
2018-09-14T06:34:41.984Z,229.50
2018-09-14T06:37:09.862Z,236.93
2018-09-14T06:39:37.848Z,222.40
2018-09-14T06:42:05.795Z,199.43
2018-09-14T06:44:33.682Z,188.63
2018-09-14T06:47:02.538Z,171.23
2018-09-14T06:49:30.445Z,168.27
2018-09-14T06:51:58.371Z,136.30
2018-09-14T06:54:26.284Z,129.60
2018-09-14T06:56:54.160Z,99.13
2018-09-14T06:59:22.014Z,88.73
2018-09-14T07:01:49.933Z,81.17
2018-09-14T07:04:17.863Z,80.00
2018-09-14T07:06:46.769Z,73.50
2018-09-14T07:09:14.651Z,57.43
2018-09-14T07:11:42.484Z,51.03
2018-09-14T07:14:10.242Z,45.53
2018-09-14T07:16:38.174Z,26.27
2018-09-14T07:19:26.749Z,25.43
2018-09-14T07:21:54.741Z,20.47
2018-09-14T07:24:23.020Z,18.27
2018-09-14T07:26:50.841Z,14.67
2018-09-14T07:29:18.693Z,13.33
2018-09-14T07:31:46.550Z,12.67
2018-09-14T07:34:14.331Z,9.23
2018-09-14T07:36:42.200Z,10.07
2018-09-14T07:39:11.012Z,12.23
2018-09-14T07:41:38.829Z,9.27
2018-09-14T07:44:06.789Z,9.80
2018-09-14T07:46:34.593Z,8.83
2018-09-14T07:49:02.412Z,15.83
2018-09-14T07:51:30.329Z,11.93
2018-09-14T07:53:58.134Z,10.23
2018-09-14T07:56:26.271Z,8.10
2018-09-14T07:58:55.104Z,7.83
2018-09-14T08:01:23.149Z,10.48
2018-09-14T08:03:51.146Z,8.90
2018-09-14T08:06:19.113Z,8.70
2018-09-14T08:08:47.161Z,7.87
2018-09-14T08:11:15.113Z,9.60
2018-09-14T08:13:42.874Z,14.10
2018-09-14T08:16:10.705Z,7.00
2018-09-14T08:18:38.517Z,8.95
2018-09-14T08:21:06.330Z,7.70
2018-09-14T08:23:34.112Z,7.53
2018-09-14T08:26:01.977Z,8.25
2018-09-14T08:28:29.771Z,7.95
2018-09-14T08:30:57.634Z,8.70
2018-09-14T08:33:25.472Z,7.17
2018-09-14T08:35:53.236Z,7.37
2018-09-14T08:38:34.069Z,7.30
2018-09-14T08:44:02.336Z,7.22
2018-09-14T08:46:30.210Z,6.85
2018-09-14T08:48:58.124Z,9.98
2018-09-14T08:51:26.992Z,11.10
2018-09-14T08:53:54.845Z,10.15
2018-09-14T08:56:22.793Z,11.57
2018-09-14T08:58:50.685Z,10.35
2018-09-14T09:01:26.108Z,10.43
2018-09-14T09:03:54.153Z,9.95
2018-09-14T09:06:21.929Z,9.65
2018-09-14T09:08:49.726Z,7.20
2018-09-14T09:11:17.544Z,12.18
2018-09-14T09:13:45.318Z,9.80
2018-09-14T09:16:13.084Z,10.25
2018-09-14T09:18:40.917Z,7.83
2018-09-14T09:21:08.711Z,12.68
2018-09-14T09:23:36.541Z,6.70
2018-09-14T09:26:04.440Z,10.68
2018-09-14T09:28:32.216Z,9.43
2018-09-14T09:31:00.289Z,10.00
2018-09-14T09:33:28.083Z,8.28
2018-09-14T09:35:56.884Z,9.15
2018-09-14T09:38:24.700Z,8.25
2018-09-14T09:40:52.477Z,9.45
2018-09-14T09:43:20.322Z,8.75
2018-09-14T09:45:48.131Z,10.00
2018-09-14T09:48:15.970Z,7.97
2018-09-14T09:50:43.851Z,6.17
2018-09-14T09:53:11.704Z,9.33
2018-09-14T09:55:39.488Z,10.18
2018-09-14T09:58:31.773Z,9.33
2018-09-14T10:01:16.840Z,7.40
2018-09-14T10:03:51.174Z,9.65
2018-09-14T10:06:23.119Z,6.03
2018-09-14T10:08:50.902Z,9.30
2018-09-14T10:11:18.769Z,10.20
2018-09-14T10:13:46.763Z,9.43
2018-09-14T10:16:14.557Z,7.37
2018-09-14T10:18:42.368Z,7.05
2018-09-14T10:21:10.140Z,4.45
2018-09-14T10:23:37.908Z,7.37
2018-09-14T10:26:05.695Z,2.47
2018-09-14T10:28:33.474Z,8.48
2018-09-14T10:31:01.257Z,6.95
2018-09-14T10:33:29.044Z,7.42
2018-09-14T10:35:56.855Z,5.83
2018-09-14T10:38:24.771Z,6.55
2018-09-14T10:40:52.617Z,4.45
2018-09-14T10:43:20.368Z,6.83
2018-09-14T10:45:48.247Z,4.25
2018-09-14T10:48:16.105Z,3.85
2018-09-14T10:50:43.905Z,5.08
2018-09-14T10:53:11.668Z,5.78
2018-09-14T10:55:40.448Z,4.25
2018-09-14T10:58:08.234Z,4.72
2018-09-14T11:00:36.033Z,6.42
2018-09-14T11:03:33.028Z,5.72
2018-09-14T11:06:25.318Z,2.75
2018-09-14T11:08:53.189Z,4.28
2018-09-14T11:11:21.053Z,3.60
2018-09-14T11:13:49.044Z,3.60
2018-09-14T11:16:16.932Z,6.30
2018-09-14T11:18:44.873Z,4.80
2018-09-14T11:21:13.766Z,9.40
2018-09-14T11:23:41.611Z,7.12
2018-09-14T11:26:09.499Z,4.45
2018-09-14T11:28:37.351Z,4.83
2018-09-14T11:31:05.252Z,4.17
2018-09-14T11:33:33.105Z,6.50
2018-09-14T11:36:00.952Z,2.90
2018-09-14T11:38:28.913Z,2.90
2018-09-14T11:40:56.653Z,4.45
2018-09-14T11:43:24.513Z,5.97
2018-09-14T11:45:52.432Z,3.40
2018-09-14T11:48:20.320Z,2.87
2018-09-14T11:50:48.241Z,3.42
2018-09-14T11:53:16.116Z,1.32
2018-09-14T11:55:43.986Z,3.50
2018-09-14T11:58:12.892Z,2.90
2018-09-14T12:00:40.751Z,3.83
2018-09-14T12:03:08.612Z,3.30
2018-09-14T12:05:36.479Z,3.33
2018-09-14T12:08:04.329Z,6.97
2018-09-14T12:10:32.777Z,7.17
2018-09-14T12:13:01.160Z,4.25
2018-09-14T12:15:29.613Z,1.72
2018-09-14T12:17:57.988Z,2.10
2018-09-14T12:20:26.380Z,1.57
2018-09-14T12:22:54.732Z,0.95
2018-09-14T12:25:23.090Z,4.42
2018-09-14T12:27:51.460Z,5.67
2018-09-14T12:30:19.790Z,4.83
2018-09-14T12:32:48.080Z,2.45
2018-09-14T12:35:16.236Z,8.25
2018-09-14T12:37:44.485Z,4.22
2018-09-14T12:40:12.688Z,2.58
2018-09-14T12:42:40.980Z,2.30
2018-09-14T12:45:09.267Z,4.95
2018-09-14T12:47:37.559Z,2.65
2018-09-14T12:50:05.759Z,10.40
2018-09-14T12:52:33.935Z,3.65
2018-09-14T12:55:02.065Z,2.72
2018-09-14T12:57:30.239Z,6.67
2018-09-14T12:59:58.489Z,4.70
2018-09-14T13:02:26.794Z,3.80
2018-09-14T13:04:54.908Z,6.28
2018-09-14T13:07:23.427Z,3.02
2018-09-14T13:09:51.654Z,4.15
2018-09-14T13:12:19.789Z,3.35
2018-09-14T13:14:47.999Z,4.85
2018-09-14T13:17:16.277Z,5.00
2018-09-14T13:19:44.521Z,5.75
2018-09-14T13:22:12.767Z,3.10
2018-09-14T13:24:41.103Z,3.25
2018-09-14T13:27:09.324Z,2.30
2018-09-14T13:29:37.520Z,4.45
2018-09-14T13:32:05.744Z,2.90
2018-09-14T13:34:33.952Z,3.55
2018-09-14T13:37:02.115Z,3.35
2018-09-14T13:39:30.345Z,2.95
2018-09-14T13:41:58.618Z,2.15
2018-09-14T13:44:26.774Z,2.50
2018-09-14T13:46:54.927Z,4.60
2018-09-14T13:49:23.558Z,4.87
2018-09-14T13:51:51.960Z,0.82
2018-09-14T13:54:20.320Z,1.35
2018-09-14T13:56:48.546Z,3.80
2018-09-14T13:59:16.752Z,3.08
2018-09-14T14:01:45.205Z,2.70
2018-09-14T14:04:13.663Z,2.33
2018-09-14T14:06:42.069Z,1.82
2018-09-14T14:09:11.872Z,1.72
2018-09-14T14:11:40.365Z,2.55
2018-09-14T14:14:09.690Z,1.65
2018-09-14T14:16:38.110Z,2.70
2018-09-14T14:19:07.740Z,7.25
2018-09-14T14:21:36.228Z,1.65
2018-09-14T14:24:04.657Z,7.67
2018-09-14T14:26:33.131Z,5.30
2018-09-14T14:29:01.561Z,3.72
2018-09-14T14:31:29.970Z,1.92
2018-09-14T14:33:58.316Z,2.87
2018-09-14T14:36:26.686Z,1.95
2018-09-14T14:38:55.180Z,3.05
2018-09-14T14:41:23.741Z,1.45
2018-09-14T14:43:52.100Z,1.25
2018-09-14T14:46:20.510Z,3.67
2018-09-14T14:48:49.027Z,4.45
2018-09-14T14:51:17.523Z,2.37
2018-09-14T14:53:45.918Z,5.00
2018-09-14T14:56:14.326Z,1.37
2018-09-14T14:58:42.737Z,2.90
2018-09-14T15:01:11.134Z,2.72
2018-09-14T15:03:39.473Z,5.60
2018-09-14T15:06:07.839Z,3.37
2018-09-14T15:08:36.264Z,1.95
2018-09-14T15:11:04.639Z,4.25
2018-09-14T15:13:33.050Z,2.35
2018-09-14T15:16:01.385Z,3.62
2018-09-14T15:18:29.821Z,0.90
2018-09-14T15:20:58.198Z,1.30
2018-09-14T15:23:26.684Z,1.07
2018-09-14T15:25:55.095Z,1.30
2018-09-14T15:28:23.403Z,2.42
2018-09-14T15:30:51.737Z,3.83
2018-09-14T15:33:20.155Z,2.37
2018-09-14T15:35:48.477Z,6.28
2018-09-14T15:38:16.906Z,1.12
2018-09-14T15:40:45.296Z,0.60
2018-09-14T15:43:13.673Z,1.55
2018-09-14T15:45:42.123Z,1.32
2018-09-14T15:48:10.506Z,1.45
2018-09-14T15:50:38.929Z,1.25
2018-09-14T15:53:07.294Z,2.67
2018-09-14T15:55:35.577Z,3.95
2018-09-14T15:58:03.990Z,4.50
2018-09-14T16:00:32.372Z,0.93
2018-09-14T16:03:00.734Z,1.22
2018-09-14T16:05:28.993Z,0.37
2018-09-14T16:07:57.380Z,0.33
2018-09-14T16:10:25.713Z,1.20
2018-09-14T16:12:54.061Z,0.75
2018-09-14T16:15:22.487Z,0.20
2018-09-14T16:17:50.843Z,0.40
2018-09-14T16:20:19.260Z,0.10
2018-09-14T16:22:47.585Z,0.53
2018-09-14T16:25:15.920Z,4.05
2018-09-14T16:27:44.350Z,2.02
2018-09-14T16:30:13.695Z,1.55
2018-09-14T16:32:42.109Z,0.68
2018-09-14T16:35:10.524Z,0.25
2018-09-14T16:37:38.941Z,1.00
2018-09-14T16:40:07.393Z,1.05
2018-09-14T16:42:35.806Z,0.47
2018-09-14T16:45:04.262Z,0.70
2018-09-14T16:47:32.636Z,2.12
2018-09-14T16:50:00.983Z,1.17
2018-09-14T16:52:29.370Z,3.47
2018-09-14T16:54:57.699Z,2.10
2018-09-14T16:57:27.101Z,2.45
2018-09-14T16:59:55.500Z,1.85
2018-09-14T17:02:23.885Z,1.52
2018-09-14T17:04:52.263Z,3.70
2018-09-14T17:07:20.627Z,0.30
2018-09-14T17:09:49.044Z,1.55
2018-09-14T17:12:17.529Z,1.12
2018-09-14T17:14:45.965Z,1.77
2018-09-14T17:17:14.496Z,1.30
2018-09-14T17:19:42.807Z,0.53
2018-09-14T17:22:11.163Z,1.62
2018-09-14T17:24:39.683Z,0.10
2018-09-14T17:27:08.354Z,0.55
2018-09-14T17:29:36.701Z,0.37
2018-09-14T17:32:05.159Z,2.20
2018-09-14T17:34:33.556Z,1.80
2018-09-14T17:37:02.232Z,2.27
2018-09-14T17:39:30.661Z,0.88
2018-09-14T17:41:59.053Z,0.35
2018-09-14T17:44:27.477Z,3.15
2018-09-14T17:46:55.923Z,1.17
2018-09-14T17:49:24.278Z,0.80
2018-09-14T17:51:53.048Z,1.57
2018-09-14T17:54:21.432Z,1.92
2018-09-14T17:56:49.786Z,4.08
2018-09-14T17:59:18.182Z,0.20
2018-09-14T18:01:46.542Z,3.15
2018-09-14T18:04:14.903Z,2.95
2018-09-14T18:06:43.335Z,1.32
2018-09-14T18:09:12.274Z,2.90
2018-09-14T18:11:40.702Z,0.30
2018-09-14T18:14:09.173Z,2.02
2018-09-14T18:16:37.542Z,2.02
2018-09-14T18:19:06.019Z,1.10
2018-09-14T18:21:34.378Z,0.95
2018-09-14T18:24:02.892Z,1.05
2018-09-14T18:26:31.380Z,1.20
2018-09-14T18:28:59.734Z,1.57
2018-09-14T18:31:28.081Z,0.30
2018-09-14T18:33:56.419Z,0.47
2018-09-14T18:36:24.778Z,0.70
2018-09-14T18:38:53.185Z,1.87
2018-09-14T18:41:21.540Z,3.30
2018-09-14T18:43:50.103Z,1.85
2018-09-14T18:46:18.621Z,3.42
2018-09-14T18:48:47.020Z,1.60
2018-09-14T18:51:15.483Z,2.22
2018-09-14T18:53:43.908Z,3.33
2018-09-14T18:56:12.341Z,4.40
2018-09-14T18:58:41.630Z,4.30
2018-09-14T19:01:10.022Z,5.42
2018-09-14T19:03:38.372Z,2.80
2018-09-14T19:06:06.957Z,2.70
2018-09-14T19:08:35.518Z,3.52
2018-09-14T19:11:04.036Z,2.33
2018-09-14T19:13:32.502Z,1.52
2018-09-14T19:16:00.903Z,2.80
2018-09-14T19:18:29.371Z,0.78
2018-09-14T19:20:57.981Z,1.20
2018-09-14T19:23:26.591Z,1.90
2018-09-14T19:25:55.505Z,0.42
2018-09-14T19:28:24.086Z,2.20
2018-09-14T19:30:52.589Z,2.30
2018-09-14T19:33:21.133Z,3.50
2018-09-14T19:35:49.612Z,1.77
2018-09-14T19:38:18.115Z,1.10
2018-09-14T19:40:46.561Z,2.62
2018-09-14T19:43:15.327Z,3.17
2018-09-14T19:45:43.788Z,1.70
2018-09-14T19:48:12.544Z,4.55
2018-09-14T19:50:41.107Z,2.03
2018-09-14T19:53:09.657Z,1.65
2018-09-14T19:55:38.241Z,6.83
2018-09-14T19:58:08.123Z,5.28
2018-09-14T20:00:36.577Z,4.07
2018-09-14T20:03:05.070Z,5.87
2018-09-14T20:05:33.465Z,9.13
2018-09-14T20:08:01.831Z,2.60
2018-09-14T20:10:30.205Z,4.23
2018-09-14T20:12:58.621Z,4.37
2018-09-14T20:15:27.201Z,2.67
2018-09-14T20:17:55.621Z,2.37
2018-09-14T20:20:23.934Z,2.13
2018-09-14T20:22:52.223Z,4.80
2018-09-14T20:25:20.732Z,3.87
2018-09-14T20:27:49.054Z,4.03
2018-09-14T20:30:17.589Z,3.50
2018-09-14T20:32:46.017Z,5.43
2018-09-14T20:35:14.413Z,1.02
2018-09-14T20:37:42.744Z,1.83
2018-09-14T20:40:11.329Z,6.10
2018-09-14T20:42:39.795Z,6.57
2018-09-14T20:45:08.216Z,3.37
2018-09-14T20:47:36.863Z,5.53
2018-09-14T20:50:05.607Z,7.30
2018-09-14T20:52:34.216Z,2.17
2018-09-14T20:55:02.556Z,2.47
2018-09-14T20:57:31.045Z,5.10
2018-09-14T20:59:59.356Z,4.07
2018-09-14T21:02:27.799Z,3.42
2018-09-14T21:04:56.304Z,2.17
2018-09-14T21:07:24.957Z,1.60
2018-09-14T21:09:53.622Z,4.30
2018-09-14T21:12:21.922Z,3.80
2018-09-14T21:14:50.398Z,1.73
2018-09-14T21:18:04.111Z,5.53
2018-09-14T21:20:32.295Z,11.00
2018-09-14T21:23:00.685Z,4.12
2018-09-14T21:25:29.064Z,2.37
2018-09-14T21:27:57.459Z,4.77
2018-09-14T21:30:25.705Z,4.60
2018-09-14T21:32:54.199Z,2.27
2018-09-14T21:35:22.511Z,2.50
2018-09-14T21:37:51.069Z,3.23
2018-09-14T21:40:19.435Z,3.17
2018-09-14T21:42:47.702Z,3.13
2018-09-14T21:45:16.142Z,2.90
2018-09-14T21:47:44.691Z,1.67
2018-09-14T21:50:13.128Z,1.87
2018-09-14T21:52:41.700Z,2.70
2018-09-14T21:55:10.442Z,4.60
2018-09-14T21:57:38.974Z,3.73
2018-09-14T22:00:13.931Z,4.58
2018-09-14T22:02:42.440Z,4.13
2018-09-14T22:05:11.200Z,3.90
2018-09-14T22:07:39.646Z,2.40
2018-09-14T22:10:08.061Z,2.43
2018-09-14T22:12:36.862Z,3.07
2018-09-14T22:15:05.364Z,3.77
2018-09-14T22:17:33.966Z,4.20
2018-09-14T22:20:02.663Z,3.97
2018-09-14T22:22:31.086Z,4.70
2018-09-14T22:24:59.483Z,2.53
2018-09-14T22:27:27.994Z,2.67
2018-09-14T22:29:56.508Z,6.10
2018-09-14T22:32:25.029Z,5.37
2018-09-14T22:34:53.559Z,6.70
2018-09-14T22:37:22.078Z,4.30
2018-09-14T22:39:50.465Z,4.47
2018-09-14T22:42:19.212Z,2.73
2018-09-14T22:44:47.703Z,4.27
2018-09-14T22:47:16.098Z,5.60
2018-09-14T22:49:44.557Z,2.97
2018-09-14T22:52:12.972Z,4.87
2018-09-14T22:54:41.481Z,6.77
2018-09-14T22:57:09.963Z,2.03
2018-09-14T22:59:38.428Z,5.60
2018-09-14T23:02:06.750Z,4.90
2018-09-14T23:04:35.100Z,3.83
2018-09-14T23:07:03.565Z,3.90
2018-09-14T23:09:31.850Z,2.97
2018-09-14T23:12:00.182Z,7.57
2018-09-14T23:14:28.496Z,4.77
2018-09-14T23:16:56.843Z,5.37
2018-09-14T23:19:26.231Z,3.33
2018-09-14T23:21:54.489Z,4.57
2018-09-14T23:24:22.756Z,9.50
2018-09-14T23:26:51.100Z,6.83
2018-09-14T23:29:19.559Z,5.60
2018-09-14T23:31:47.766Z,5.60
2018-09-14T23:34:16.246Z,3.47
2018-09-14T23:36:44.676Z,5.43
2018-09-14T23:39:12.999Z,8.23
2018-09-14T23:41:41.541Z,4.07
2018-09-14T23:44:09.808Z,10.33
2018-09-14T23:46:38.226Z,8.03
2018-09-14T23:49:06.545Z,6.60
2018-09-14T23:51:34.991Z,9.60
2018-09-14T23:54:03.474Z,5.50
2018-09-14T23:56:31.854Z,6.80
2018-09-14T23:59:00.166Z,9.97
